EW4977 Weather Reports


Display with metric or nautical units.
time (UTC)temp
F
wind
direction
speed
MPH
gust
MPH
rain 1hr
in
rain 24hr
in
rain mn
in
humidity
%
barometer
mb
20200329065531 45 155 3.0 8.0 0.01 1.66 0.33 97 1001.5
20200329065035 45 124 2.0 8.0 0.01 1.66 0.33 97 1001.6
20200329064531 45 124 2.0 6.0 0.01 1.66 0.33 97 1001.8
20200329064030 45 160 2.0 6.0 0.02 1.66 0.33 97 1001.9
20200329063532 45 125 2.0 7.0 0.05 1.66 0.33 97 1002.1
20200329063108 45 144 2.0 7.0 0.05 1.66 0.33 97 1002.3
20200329062532 45 100 2.0 8.0 0.05 1.66 0.33 97 1002.4
20200329062038 44 137 3.0 8.0 0.05 1.66 0.33 97 1002.6
20200329061547 44 132 2.0 8.0 0.05 1.66 0.33 97 1002.8
20200329061106 44 154 4.0 8.0 0.05 1.66 0.33 97 1003.1
20200329060537 44 139 5.0 8.0 0.05 1.66 0.33 97 1003.2
20200329060138 44 146 5.0 8.0 0.06 1.66 0.33 97 1003.4
20200329055532 44 133 5.0 8.0 0.05 1.65 0.32 97 1003.7
20200329055033 44 141 5.0 9.0 0.07 1.65 0.32 97 1003.6
20200329054802 43 143 6.0 10.0 0.18 1.65 0.32 97 1003.5
20200329054037 43 141 7.0 10.0 0.19 1.64 0.31 97 1003.2
20200329053555 42 155 2.0 9.0 0.18 1.61 0.28 97 1002.8
20200329053041 42 115 3.0 5.0 0.20 1.61 0.28 97 1002.3
20200329052539 42 129 2.0 6.0 0.21 1.61 0.28 97 1002.6
20200329052034 42 100 2.0 6.0 0.21 1.61 0.28 97 1003.1
20200329051615 42 285 2.0 6.0 0.22 1.61 0.28 97 1003.3
20200329051034 41 94 2.0 5.0 0.23 1.61 0.28 97 1003.5
20200329050532 41 108 1.0 4.0 0.25 1.61 0.28 97 1004.2
20200329050118 41 236 3.0 6.0 0.27 1.60 0.27 97 1006.0
20200329045555 41 269 2.0 11.0 0.29 1.60 0.27 96 1005.6
20200329045030 40 147 2.0 11.0 0.27 1.57 0.24 96 1004.4
20200329044546 40 162 5.0 10.0 0.17 1.47 0.14 96 1004.9
20200329044032 40 179 2.0 6.0 0.15 1.45 0.12 96 1004.0
20200329043610 40 122 2.0 6.0 0.13 1.42 0.09 96 1004.8
20200329043129 40 357 3.0 6.0 0.12 1.41 0.08 96 1004.6
20200329042531 39 103 2.0 5.0 0.11 1.40 0.07 96 1005.1
20200329042034 39 357 2.0 5.0 0.11 1.40 0.07 96 1004.9
20200329041622 39 151 1.0 5.0 0.11 1.39 0.06 96 1005.2
20200329041032 39 126 1.0 5.0 0.10 1.37 0.04 96 1005.7
20200329040547 39 126 2.0 3.0 0.10 1.35 0.02 96 1006.2
20200329040204 39 66 0.0 3.0 0.09 1.33 0.00 96 1006.9
20200329035533 39 116 1.0 3.0 0.07 1.31 1.31 96 1006.8
20200329035030 39 293 1.0 3.0 0.06 1.30 1.30 96 1006.7
20200329034545 39 144 1.0 7.0 0.07 1.30 1.30 96 1006.8
20200329034043 39 156 2.0 7.0 0.09 1.30 1.30 95 1006.4
20200329033540 39 121 2.0 7.0 0.11 1.29 1.29 95 1006.3
20200329033105 39 146 2.0 7.0 0.12 1.29 1.29 95 1006.2
20200329032530 39 146 2.0 6.0 0.13 1.29 1.29 95 1006.5
20200329032032 39 128 2.0 6.0 0.14 1.29 1.29 95 1006.9
20200329031629 39 191 3.0 6.0 0.14 1.28 1.28 95 1007.1
20200329031041 39 146 3.0 8.0 0.13 1.26 1.26 95 1007.2
20200329030533 39 145 3.0 8.0 0.12 1.25 1.25 95 1007.3
20200329030120 39 116 1.0 5.0 0.12 1.24 1.24 95 1007.3
20200329025541 39 113 2.0 5.0 0.13 1.24 1.24 95 1007.2
20200329025035 39 129 2.0 4.0 0.14 1.24 1.24 95 1007.4
20200329024603 39 117 1.0 6.0 0.15 1.23 1.23 95 1007.6
20200329024035 39 185 2.0 6.0 0.13 1.20 1.20 95 1008.4
20200329023537 39 153 1.0 4.0 0.12 1.17 1.17 95 1008.5
20200329023102 39 142 1.0 6.0 0.12 1.16 1.16 94 1008.5
20200329022533 39 99 1.0 6.0 0.11 1.15 1.15 94 1008.0
20200329022040 39 56 2.0 7.0 0.11 1.15 1.15 94 1007.5
20200329021534 39 58 2.0 9.0 0.11 1.14 1.14 94 1007.5
20200329021034 39 74 3.0 9.0 0.12 1.13 1.13 94 1007.6
20200329020545 39 145 2.0 7.0 0.14 1.13 1.13 94 1008.0
20200329020042 39 150 1.0 5.0 0.14 1.12 1.12 94 1008.3
20200329015531 39 146 1.0 5.0 0.13 1.11 1.11 94 1008.6
20200329015033 39 163 1.0 5.0 0.13 1.10 1.10 93 1009.2
20200329014607 39 138 1.0 5.0 0.11 1.08 1.08 93 1009.0
20200329014039 39 70 1.0 4.0 0.11 1.07 1.07 93 1008.9
20200329013532 39 123 1.0 4.0 0.10 1.05 1.05 93 1009.0
20200329013054 40 120 1.0 6.0 0.09 1.04 1.04 93 1009.0
20200329012538 40 135 1.0 6.0 0.08 1.04 1.04 93 1009.1
20200329012031 40 166 1.0 5.0 0.07 1.03 1.03 93 1009.0
20200329011645 40 65 1.0 5.0 0.07 1.03 1.03 92 1009.0
20200329011050 40 65 2.0 4.0 0.05 1.01 1.01 92 1009.1
20200329010549 40 129 1.0 5.0 0.03 0.99 0.99 92 1009.3
20200329010213 40 136 1.0 5.0 0.02 0.98 0.98 91 1009.5
20200329005531 40 154 1.0 5.0 0.02 0.98 0.98 91 1009.6
20200329005033 40 154 1.0 7.0 0.01 0.97 0.97 91 1009.7
20200329004642 40 149 2.0 7.0 0.01 0.97 0.97 90 1009.5
20200329004032 40 102 2.0 5.0 0.00 0.96 0.96 90 1009.2
20200329003535 40 197 1.0 6.0 0.00 0.96 0.96 90 1009.0
20200329003042 40 62 1.0 6.0 0.00 0.96 0.96 90 1009.0
20200329002539 40 85 1.0 7.0 0.00 0.96 0.96 89 1009.1
20200329002048 40 136 2.0 7.0 0.00 0.96 0.96 89 1009.1
20200329001651 40 135 2.0 8.0 0.00 0.96 0.96 89 1009.4
20200329001032 40 23 3.0 11.0 0.00 0.96 0.96 89 1009.4
20200329000531 40 110 3.0 11.0 0.00 0.96 0.96 89 1009.2
20200329000115 41 68 2.0 9.0 0.00 0.96 0.96 89 1009.4
20200328235535 41 61 3.0 9.0 0.00 0.96 0.96 90 1009.6
20200328235032 41 15 2.0 5.0 0.00 0.96 0.96 91 1009.5
20200328234600 41 71 1.0 5.0 0.00 0.96 0.96 91 1009.7
20200328234042 41 158 1.0 7.0 0.00 0.96 0.96 91 1009.8
20200328233536 41 91 2.0 10.0 0.00 0.96 0.96 90 1009.6
20200328233117 41 89 2.0 10.0 0.00 0.96 0.96 91 1009.7
20200328232532 41 59 3.0 8.0 0.00 0.96 0.96 91 1009.6
20200328232031 41 347 1.0 8.0 0.00 0.96 0.96 91 1009.6
20200328231536 41 35 2.0 7.0 0.00 0.96 0.96 91 1009.5
20200328231031 41 191 3.0 7.0 0.00 0.96 0.96 92 1009.7
20200328230532 41 70 3.0 7.0 0.00 0.96 0.96 92 1009.8
20200328230105 41 246 2.0 6.0 0.00 0.96 0.96 93 1009.9
20200328225530 41 162 2.0 6.0 0.00 0.96 0.96 93 1010.1
20200328225033 41 81 2.0 5.0 0.00 0.96 0.96 93 1010.3
20200328224549 41 116 1.0 5.0 0.00 0.96 0.96 93 1010.4
20200328224044 41 84 1.0 8.0 0.00 0.96 0.96 93 1010.3
20200328223530 42 57 2.0 8.0 0.00 0.96 0.96 93 1010.3
20200328223050 42 146 1.0 6.0 0.00 0.96 0.96 94 1010.2
20200328222532 42 127 2.0 6.0 0.00 0.96 0.96 94 1010.0
20200328222030 42 114 1.0 6.0 0.00 0.96 0.96 94 1010.2
20200328221553 42 75 1.0 7.0 0.00 0.96 0.96 94 1010.3
20200328221035 42 334 2.0 7.0 0.00 0.96 0.96 94 1010.4
20200328220533 43 128 1.0 5.0 0.00 0.96 0.96 94 1010.2
20200328220046 43 89 2.0 6.0 0.00 0.96 0.96 94 1010.1
20200328215531 43 56 2.0 6.0 0.00 0.96 0.96 95 1010.1
20200328215044 43 117 1.0 7.0 0.00 0.96 0.96 95 1010.1
20200328214634 43 119 2.0 7.0 0.00 0.96 0.96 95 1010.1
20200328214032 43 122 3.0 6.0 0.00 0.96 0.96 95 1009.9
20200328213532 43 84 3.0 5.0 0.00 0.96 0.96 95 1010.1
20200328213044 43 105 2.0 4.0 0.00 0.96 0.96 95 1010.4
20200328212535 43 109 1.0 3.0 0.00 0.96 0.96 95 1010.2
20200328212032 43 115 1.0 4.0 0.00 0.96 0.96 95 1010.0
20200328211542 43 101 1.0 4.0 0.00 0.96 0.96 95 1010.1
20200328211032 43 123 1.0 4.0 0.00 0.96 0.96 95 1009.9
20200328210557 43 113 1.0 5.0 0.00 0.96 0.96 95 1010.1
20200328210041 43 103 1.0 6.0 0.00 0.96 0.96 95 1010.0
20200328205622 43 134 2.0 6.0 0.00 0.96 0.96 95 1010.1
20200328205032 43 49 2.0 6.0 0.00 0.96 0.96 95 1010.0
20200328204536 43 36 1.0 7.0 0.00 0.96 0.96 95 1009.9
20200328204029 43 53 2.0 7.0 0.00 0.96 0.96 95 1009.8
20200328203532 43 8 2.0 6.0 0.00 0.96 0.96 94 1009.8
20200328203045 43 336 2.0 6.0 0.00 0.96 0.96 94 1009.5
20200328202545 43 93 2.0 6.0 0.00 0.96 0.96 94 1009.4
20200328202032 44 56 1.0 4.0 0.00 0.96 0.96 94 1009.2
20200328201547 44 127 1.0 6.0 0.00 0.96 0.96 94 1009.1
20200328201031 44 135 2.0 6.0 0.00 0.96 0.96 94 1009.0
20200328200539 44 29 2.0 6.0 0.00 0.96 0.96 94 1009.1
20200328200032 44 120 1.0 4.0 0.00 0.96 0.96 94 1009.3
20200328195529 44 108 1.0 5.0 0.00 0.96 0.96 94 1009.4
20200328195034 44 77 2.0 7.0 0.00 0.96 0.96 94 1009.6
20200328194611 44 70 2.0 7.0 0.00 0.96 0.96 94 1009.4
20200328194030 44 4 2.0 7.0 0.00 0.96 0.96 94 1009.4
20200328193616 44 62 1.0 7.0 0.00 0.96 0.96 94 1009.4
20200328193106 44 48 2.0 5.0 0.00 0.96 0.96 94 1009.8
20200328192533 44 103 2.0 5.0 0.00 0.96 0.96 94 1010.0
20200328192028 44 158 1.0 6.0 0.00 0.96 0.96 94 1009.8
20200328191543 44 134 2.0 7.0 0.00 0.96 0.96 94 1009.6
20200328191030 44 72 2.0 7.0 0.00 0.96 0.96 94 1009.4
20200328190533 44 134 2.0 7.0 0.00 0.96 0.96 94 1009.3
20200328190143 44 359 3.0 7.0 0.00 0.96 0.96 94 1009.2
20200328185535 44 158 2.0 6.0 0.00 0.96 0.96 95 1009.2
20200328185029 44 176 2.0 6.0 0.00 0.96 0.96 95 1009.1
20200328184535 44 129 2.0 7.0 0.00 0.96 0.96 95 1009.3
20200328184035 44 116 2.0 7.0 0.00 0.96 0.96 95 1009.4
20200328183532 44 133 1.0 4.0 0.00 0.96 0.96 95 1009.5
20200328183107 44 83 1.0 4.0 0.00 0.96 0.96 95 1009.5
20200328182536 44 132 1.0 5.0 0.00 0.96 0.96 95 1009.6
20200328182054 44 99 1.0 5.0 0.00 0.96 0.96 95 1009.7
20200328181615 44 42 1.0 4.0 0.00 0.96 0.96 95 1009.7
20200328181032 44 70 1.0 4.0 0.00 0.96 0.96 94 1010.1
20200328180532 44 101 1.0 4.0 0.00 0.96 0.96 94 1010.4
20200328180035 44 34 1.0 3.0 0.01 0.96 0.96 94 1010.4
20200328175531 44 78 1.0 2.0 0.01 0.96 0.96 94 1010.6
20200328175034 44 89 1.0 4.0 0.01 0.96 0.96 94 1010.4
20200328174603 44 34 1.0 4.0 0.01 0.96 0.96 94 1010.3
20200328174032 44 131 0.0 4.0 0.01 0.96 0.96 94 1010.2
20200328173530 44 11 0.0 4.0 0.01 0.96 0.96 94 1010.1
20200328173107 43 43 1.0 6.0 0.01 0.96 0.96 94 1010.2
20200328172529 43 49 0.0 6.0 0.01 0.96 0.96 95 1010.3
20200328172030 43 70 1.0 3.0 0.01 0.96 0.96 95 1010.1
20200328171533 43 33 1.0 3.0 0.01 0.96 0.96 95 1009.9
20200328171031 43 330 1.0 5.0 0.01 0.96 0.96 95 1009.7
20200328170529 43 77 2.0 5.0 0.01 0.96 0.96 95 1009.8
20200328170030 43 137 1.0 4.0 0.00 0.95 0.95 95 1009.5
20200328165529 43 126 1.0 6.0 0.00 0.95 0.95 95 1009.4
20200328165036 43 233 2.0 7.0 0.00 0.95 0.95 95 1009.1
20200328164612 43 77 1.0 7.0 0.00 0.95 0.95 95 1009.2
20200328164041 43 89 2.0 8.0 0.00 0.95 0.95 95 1009.1
20200328163531 43 124 3.0 8.0 0.00 0.95 0.95 95 1009.0
20200328162541 42 113 2.0 6.0 0.01 0.95 0.95 95 1009.4
20200328162032 42 111 2.0 12.0 0.01 0.95 0.95 95 1009.5
20200328161538 42 134 3.0 12.0 0.02 0.95 0.95 95 1009.4
20200328161033 42 36 4.0 8.0 0.02 0.95 0.95 95 1008.5
20200328160529 42 139 3.0 8.0 0.02 0.95 0.95 95 1008.5
20200328160042 41 71 3.0 7.0 0.03 0.95 0.95 95 1008.8
20200328155532 41 70 2.0 6.0 0.03 0.95 0.95 95 1009.2
20200328155040 41 350 2.0 6.0 0.03 0.95 0.95 95 1009.3
20200328154555 41 92 2.0 7.0 0.03 0.95 0.95 95 1009.8
20200328154035 41 189 3.0 7.0 0.03 0.95 0.95 95 1010.1
20200328153543 41 160 2.0 6.0 0.03 0.95 0.95 95 1010.2
20200328153033 41 104 1.0 5.0 0.02 0.94 0.94 95 1010.3
20200328152541 41 139 1.0 5.0 0.03 0.94 0.94 95 1010.6
20200328152030 41 99 1.0 6.0 0.02 0.93 0.93 95 1010.7
20200328151614 41 136 2.0 8.0 0.02 0.93 0.93 95 1010.2
20200328151029 40 133 2.0 9.0 0.02 0.93 0.93 95 1010.3
20200328150529 40 136 3.0 9.0 0.03 0.93 0.93 95 1010.3
20200328150056 40 109 2.0 6.0 0.02 0.92 0.92 95 1010.3
20200328145532 40 146 2.0 9.0 0.02 0.92 0.92 95 1010.2
20200328145036 40 116 1.0 9.0 0.02 0.92 0.92 95 1010.3
20200328144538 40 52 4.0 9.0 0.02 0.92 0.92 95 1010.3
20200328144030 40 75 3.0 8.0 0.02 0.92 0.92 95 1010.6
20200328143531 40 70 2.0 8.0 0.02 0.92 0.92 95 1010.5
20200328143140 40 41 3.0 8.0 0.02 0.92 0.92 95 1010.8
20200328142534 39 94 2.0 9.0 0.02 0.91 0.91 95 1010.8
20200328142031 39 37 3.0 9.0 0.02 0.91 0.91 95 1010.9
20200328141629 39 360 3.0 8.0 0.03 0.91 0.91 95 1011.3
20200328141042 39 27 2.0 8.0 0.03 0.91 0.91 95 1011.4
20200328140531 39 51 3.0 8.0 0.04 0.90 0.90 95 1011.7
20200328140042 39 58 2.0 5.0 0.05 0.90 0.90 95 1011.4
20200328135535 39 349 1.0 6.0 0.05 0.90 0.90 96 1011.5
20200328135034 39 84 2.0 8.0 0.06 0.90 0.90 96 1011.4
20200328134600 39 18 3.0 10.0 0.07 0.90 0.90 96 1011.2
20200328134031 39 352 4.0 10.0 0.07 0.90 0.90 96 1011.3
20200328133530 39 89 1.0 7.0 0.08 0.90 0.90 96 1010.8
20200328133057 39 149 3.0 7.0 0.09 0.90 0.90 96 1010.2
20200328132529 39 115 2.0 6.0 0.08 0.89 0.89 96 1010.6
20200328132035 39 57 2.0 6.0 0.09 0.89 0.89 96 1011.2
20200328131542 39 91 2.0 6.0 0.10 0.88 0.88 96 1011.4
20200328131035 39 82 3.0 6.0 0.11 0.87 0.87 96 1011.1
20200328130532 39 105 2.0 6.0 0.12 0.86 0.86 96 1010.9
20200328130117 39 61 2.0 6.0 0.14 0.85 0.85 96 1010.9
20200328125531 39 80 2.0 11.0 0.15 0.85 0.85 96 1010.7
20200328125047 38 134 3.0 11.0 0.16 0.84 0.84 96 1010.5
20200328124643 38 78 3.0 9.0 0.16 0.83 0.83 96 1010.6
20200328124032 38 76 2.0 7.0 0.17 0.83 0.83 96 1010.9
20200328123533 38 342 3.0 12.0 0.16 0.82 0.82 95 1010.7
20200328123100 38 13 4.0 12.0 0.16 0.81 0.81 95 1010.8
20200328122543 38 75 2.0 6.0 0.17 0.81 0.81 95 1010.7
20200328122109 38 38 2.0 6.0 0.17 0.80 0.80 95 1010.9
20200328121710 38 82 2.0 6.0 0.17 0.78 0.78 95 1010.8
20200328121030 38 100 2.0 6.0 0.17 0.76 0.76 95 1010.7
20200328120532 38 67 3.0 6.0 0.16 0.73 0.73 95 1010.8
20200328120113 38 83 2.0 5.0 0.17 0.71 0.71 95 1010.8
20200328115530 38 252 1.0 8.0 0.17 0.69 0.69 95 1010.8
20200328115031 38 127 2.0 8.0 0.18 0.68 0.68 95 1010.8
20200328114658 38 246 1.0 9.0 0.19 0.67 0.67 95 1010.3
20200328114034 38 67 2.0 9.0 0.20 0.66 0.66 95 1010.1
20200328113537 38 86 2.0 11.0 0.22 0.66 0.66 95 1010.1
20200328113106 38 119 4.0 11.0 0.23 0.65 0.65 95 1010.1
20200328112529 38 0 1.0 8.0 0.23 0.64 0.64 95 1009.9
20200328112029 38 144 2.0 8.0 0.23 0.63 0.63 95 1009.7
20200328111559 38 49 1.0 6.0 0.22 0.61 0.61 95 1009.6
20200328111036 38 128 2.0 12.0 0.21 0.58 0.58 95 1010.0
20200328110531 38 336 3.0 12.0 0.20 0.57 0.57 95 1010.2
20200328110055 38 74 3.0 6.0 0.19 0.54 0.54 95 1010.5
20200328105533 38 78 2.0 7.0 0.17 0.51 0.51 95 1010.6
20200328105029 37 99 2.0 11.0 0.16 0.49 0.49 95 1010.5
20200328104602 37 340 3.0 11.0 0.16 0.48 0.48 95 1010.4
20200328104032 37 46 2.0 10.0 0.15 0.46 0.46 95 1010.5
20200328103534 37 50 2.0 11.0 0.14 0.43 0.43 95 1010.6
20200328103056 37 59 3.0 14.0 0.14 0.42 0.42 95 1010.5
20200328102531 37 106 5.0 14.0 0.14 0.41 0.41 95 1010.3
20200328102030 37 44 4.0 11.0 0.15 0.40 0.40 95 1010.1
20200328101613 37 278 4.0 11.0 0.15 0.39 0.39 95 1010.1
20200328101031 37 93 3.0 11.0 0.15 0.38 0.38 95 1010.5
20200328100529 37 114 3.0 9.0 0.15 0.36 0.36 95 1010.7
20200328100110 38 297 4.0 8.0 0.15 0.35 0.35 95 1010.7
20200328095534 38 359 3.0 6.0 0.16 0.34 0.34 95 1010.9
20200328095034 38 315 2.0 6.0 0.17 0.33 0.33 95 1010.8
20200328094612 38 336 3.0 6.0 0.17 0.32 0.32 95 1010.8
20200328094033 38 120 2.0 7.0 0.16 0.30 0.30 95 1010.5
20200328093529 38 281 2.0 10.0 0.15 0.29 0.29 95 1010.1
20200328093202 38 61 4.0 11.0 0.15 0.28 0.28 94 1010.3
20200328092532 38 335 4.0 11.0 0.15 0.27 0.27 94 1010.2
20200328092037 39 82 3.0 9.0 0.13 0.25 0.25 94 1010.4
20200328091552 39 13 2.0 7.0 0.13 0.24 0.24 94 1010.6
20200328091104 39 56 2.0 10.0 0.12 0.23 0.23 94 1010.6
20200328090531 39 32 3.0 10.0 0.10 0.21 0.21 94 1010.5
20200328090034 40 264 4.0 8.0 0.09 0.20 0.20 94 1010.5
20200328085528 40 67 1.0 6.0 0.08 0.18 0.18 94 1010.9
20200328085034 40 347 3.0 7.0 0.06 0.16 0.16 94 1011.4
20200328084556 40 45 3.0 7.0 0.06 0.15 0.15 94 1011.2
20200328084052 40 60 2.0 4.0 0.05 0.14 0.14 94 1011.0
20200328083531 40 174 1.0 4.0 0.06 0.14 0.14 94 1010.6
20200328083047 40 80 1.0 6.0 0.06 0.13 0.13 94 1010.7
20200328082530 40 49 2.0 6.0 0.07 0.12 0.12 94 1010.9
20200328082035 40 9 2.0 6.0 0.07 0.11 0.11 94 1010.9
20200328081655 40 35 2.0 5.0 0.08 0.11 0.11 94 1011.0
20200328081031 40 343 2.0 4.0 0.08 0.11 0.11 93 1010.8
20200328080533 40 53 1.0 5.0 0.09 0.11 0.11 93 1011.0
20200328080118 41 40 1.0 5.0 0.09 0.11 0.11 93 1010.8
20200328075532 41 6 1.0 4.0 0.09 0.10 0.10 93 1010.7
20200328075029 41 86 1.0 4.0 0.10 0.10 0.10 92 1010.8
20200328074638 41 313 1.0 3.0 0.09 0.09 0.09 92 1011.0
20200328074031 41 131 1.0 3.0 0.09 0.09 0.09 92 1011.1
20200328073545 41 189 1.0 3.0 0.08 0.08 0.08 92 1011.4
20200328073111 42 138 0.0 4.0 0.07 0.07 0.07 91 1011.7
20200328072535 42 121 2.0 4.0 0.05 0.05 0.05 91 1011.7
20200328072036 42 138 2.0 5.0 0.04 0.04 0.04 91 1011.7
20200328071643 42 122 2.0 6.0 0.03 0.03 0.03 91 1011.5
20200328071032 42 131 2.0 6.0 0.03 0.03 0.03 90 1011.2
20200328070536 42 144 4.0 6.0 0.02 0.02 0.02 90 1011.2
20200328070043 42 141 4.0 6.0 0.01 0.01 0.01 90 1011.2